Search for airport 
image banner adimage banner adimage banner ad
image banner ad

2CN4 - Wonderful Pistachios&Almonds

Located in Lost Hills, United States

ICAO - 2CN4, IATA -

Data provided by Airmate  

General information

Coordinates: N35°39'59" W119°53'47"
Elevation is 617 feet MSL.
 
View others Airports in California

Operational data

Special qualification required
Current time UTC:
Current local time:
Weather at : KDLO - Delano Muni ( 60 km )
METAR: KDLO 240835Z AUTO 24004KT 10SM CLR 21/07 A2993 RMK AO2 T02060069
View NOTAMs / SUP AIP / TFR affecting this airport [VIEW]
Communications frequencies: [VIEW]

Runways:

RWY identifierQFULength (ft)Width (ft)SurfaceLDA (ft)
13500260ASPH
31500260ASPH

Airport contact information

Address: Lost Hills United States

Satellite view of 2CN4